sensor_id;sensor_type;location;lat;lon;timestamp;temperature;humidity
52513;DHT22;38422;53.172;6.974;2023-03-14T00:01:57;9.60;99.90
52513;DHT22;38422;53.172;6.974;2023-03-14T00:04:23;9.60;99.90
52513;DHT22;38422;53.172;6.974;2023-03-14T00:06:48;9.60;99.90
52513;DHT22;38422;53.172;6.974;2023-03-14T00:09:15;9.60;99.90
52513;DHT22;38422;53.172;6.974;2023-03-14T00:11:41;9.60;99.90
52513;DHT22;38422;53.172;6.974;2023-03-14T00:14:07;9.60;99.90
52513;DHT22;38422;53.172;6.974;2023-03-14T00:16:33;9.60;99.90
52513;DHT22;38422;53.172;6.974;2023-03-14T00:18:59;9.60;99.90
52513;DHT22;38422;53.172;6.974;2023-03-14T00:21:25;9.60;99.90
52513;DHT22;38422;53.172;6.974;2023-03-14T00:23:51;9.60;99.90
52513;DHT22;38422;53.172;6.974;2023-03-14T00:26:19;9.60;99.90
52513;DHT22;38422;53.172;6.974;2023-03-14T00:28:45;9.60;99.90
52513;DHT22;38422;53.172;6.974;2023-03-14T00:31:13;9.70;99.90
52513;DHT22;38422;53.172;6.974;2023-03-14T00:33:39;9.70;99.90
52513;DHT22;38422;53.172;6.974;2023-03-14T00:36:08;9.70;99.90
52513;DHT22;38422;53.172;6.974;2023-03-14T00:38:38;9.80;99.90
52513;DHT22;38422;53.172;6.974;2023-03-14T00:41:06;9.90;99.90
52513;DHT22;38422;53.172;6.974;2023-03-14T00:43:32;9.90;99.90
52513;DHT22;38422;53.172;6.974;2023-03-14T00:45:58;10.00;99.90
52513;DHT22;38422;53.172;6.974;2023-03-14T00:48:24;10.00;99.90
52513;DHT22;38422;53.172;6.974;2023-03-14T00:50:50;10.00;99.90
52513;DHT22;38422;53.172;6.974;2023-03-14T00:53:16;10.10;99.90
52513;DHT22;38422;53.172;6.974;2023-03-14T00:55:42;10.10;99.90
52513;DHT22;38422;53.172;6.974;2023-03-14T00:58:09;10.20;99.90
52513;DHT22;38422;53.172;6.974;2023-03-14T01:00:35;10.20;99.90
52513;DHT22;38422;53.172;6.974;2023-03-14T01:03:02;10.20;99.90
52513;DHT22;38422;53.172;6.974;2023-03-14T01:05:28;10.20;99.90
52513;DHT22;38422;53.172;6.974;2023-03-14T01:07:53;10.20;99.90
52513;DHT22;38422;53.172;6.974;2023-03-14T01:10:19;10.20;99.90
52513;DHT22;38422;53.172;6.974;2023-03-14T01:12:45;10.20;99.90
52513;DHT22;38422;53.172;6.974;2023-03-14T01:15:11;10.20;99.90
52513;DHT22;38422;53.172;6.974;2023-03-14T01:17:37;10.20;99.90
52513;DHT22;38422;53.172;6.974;2023-03-14T01:20:06;10.20;99.90
52513;DHT22;38422;53.172;6.974;2023-03-14T01:22:38;10.20;99.90
52513;DHT22;38422;53.172;6.974;2023-03-14T01:25:10;10.20;99.90
52513;DHT22;38422;53.172;6.974;2023-03-14T01:27:36;10.20;99.90
52513;DHT22;38422;53.172;6.974;2023-03-14T01:30:02;10.20;99.90
52513;DHT22;38422;53.172;6.974;2023-03-14T01:32:29;10.20;99.90
52513;DHT22;38422;53.172;6.974;2023-03-14T01:34:54;10.20;99.90
52513;DHT22;38422;53.172;6.974;2023-03-14T01:37:20;10.20;99.90
52513;DHT22;38422;53.172;6.974;2023-03-14T01:39:49;10.20;99.90
52513;DHT22;38422;53.172;6.974;2023-03-14T01:42:15;10.20;99.90
52513;DHT22;38422;53.172;6.974;2023-03-14T01:44:58;10.20;99.90
52513;DHT22;38422;53.172;6.974;2023-03-14T01:47:24;10.20;99.90
52513;DHT22;38422;53.172;6.974;2023-03-14T01:50:04;10.20;99.90
52513;DHT22;38422;53.172;6.974;2023-03-14T01:52:39;10.20;99.90
52513;DHT22;38422;53.172;6.974;2023-03-14T01:55:21;10.20;99.90
52513;DHT22;38422;53.172;6.974;2023-03-14T01:57:52;10.20;99.90
52513;DHT22;38422;53.172;6.974;2023-03-14T02:00:21;10.20;99.90
52513;DHT22;38422;53.172;6.974;2023-03-14T02:02:56;10.10;99.90
52513;DHT22;38422;53.172;6.974;2023-03-14T02:05:28;10.10;99.90
52513;DHT22;38422;53.172;6.974;2023-03-14T02:07:58;10.10;99.90
52513;DHT22;38422;53.172;6.974;2023-03-14T02:10:30;10.10;99.90
52513;DHT22;38422;53.172;6.974;2023-03-14T02:12:59;10.10;99.90
52513;DHT22;38422;53.172;6.974;2023-03-14T02:15:27;10.10;99.90
52513;DHT22;38422;53.172;6.974;2023-03-14T02:17:53;10.10;99.90
52513;DHT22;38422;53.172;6.974;2023-03-14T02:23:16;10.20;99.90
52513;DHT22;38422;53.172;6.974;2023-03-14T02:25:54;10.20;99.90
52513;DHT22;38422;53.172;6.974;2023-03-14T02:28:22;10.20;99.90
52513;DHT22;38422;53.172;6.974;2023-03-14T02:30:48;10.20;99.90
52513;DHT22;38422;53.172;6.974;2023-03-14T02:33:17;10.20;99.90
52513;DHT22;38422;53.172;6.974;2023-03-14T02:35:56;10.20;99.90
52513;DHT22;38422;53.172;6.974;2023-03-14T02:38:41;10.20;99.90
52513;DHT22;38422;53.172;6.974;2023-03-14T02:41:09;10.20;99.90
52513;DHT22;38422;53.172;6.974;2023-03-14T02:43:35;10.20;99.90
52513;DHT22;38422;53.172;6.974;2023-03-14T02:46:01;10.20;99.90
52513;DHT22;38422;53.172;6.974;2023-03-14T02:48:33;10.20;99.90
52513;DHT22;38422;53.172;6.974;2023-03-14T02:51:01;10.20;99.90
52513;DHT22;38422;53.172;6.974;2023-03-14T02:53:33;10.10;99.90
52513;DHT22;38422;53.172;6.974;2023-03-14T02:55:59;10.10;99.90
52513;DHT22;38422;53.172;6.974;2023-03-14T02:58:26;10.10;99.90
52513;DHT22;38422;53.172;6.974;2023-03-14T03:00:52;10.10;99.90
52513;DHT22;38422;53.172;6.974;2023-03-14T03:03:18;10.10;99.90
52513;DHT22;38422;53.172;6.974;2023-03-14T03:05:48;10.10;99.90
52513;DHT22;38422;53.172;6.974;2023-03-14T03:08:14;10.10;99.90
52513;DHT22;38422;53.172;6.974;2023-03-14T03:10:39;10.00;99.90
52513;DHT22;38422;53.172;6.974;2023-03-14T03:13:05;10.00;99.90
52513;DHT22;38422;53.172;6.974;2023-03-14T03:15:31;10.00;99.90
52513;DHT22;38422;53.172;6.974;2023-03-14T03:17:56;9.90;99.90
52513;DHT22;38422;53.172;6.974;2023-03-14T03:20:22;9.90;99.90
52513;DHT22;38422;53.172;6.974;2023-03-14T03:22:48;9.90;99.90
52513;DHT22;38422;53.172;6.974;2023-03-14T03:25:15;9.90;99.90
52513;DHT22;38422;53.172;6.974;2023-03-14T03:27:41;9.90;99.90
52513;DHT22;38422;53.172;6.974;2023-03-14T03:30:07;9.90;99.90
52513;DHT22;38422;53.172;6.974;2023-03-14T03:32:34;9.90;99.90
52513;DHT22;38422;53.172;6.974;2023-03-14T03:34:59;9.90;99.90
52513;DHT22;38422;53.172;6.974;2023-03-14T03:37:25;9.90;99.90
52513;DHT22;38422;53.172;6.974;2023-03-14T03:39:51;9.80;99.90
52513;DHT22;38422;53.172;6.974;2023-03-14T03:42:18;9.80;99.90
52513;DHT22;38422;53.172;6.974;2023-03-14T03:44:44;9.80;99.90
52513;DHT22;38422;53.172;6.974;2023-03-14T03:47:10;9.80;99.90
52513;DHT22;38422;53.172;6.974;2023-03-14T03:49:35;9.80;99.90
52513;DHT22;38422;53.172;6.974;2023-03-14T03:52:01;9.80;99.90
52513;DHT22;38422;53.172;6.974;2023-03-14T03:54:27;9.80;99.90
52513;DHT22;38422;53.172;6.974;2023-03-14T03:56:54;9.70;99.90
52513;DHT22;38422;53.172;6.974;2023-03-14T03:59:20;9.70;99.90
52513;DHT22;38422;53.172;6.974;2023-03-14T04:01:46;9.60;99.90
52513;DHT22;38422;53.172;6.974;2023-03-14T04:04:12;9.60;99.90
52513;DHT22;38422;53.172;6.974;2023-03-14T04:06:38;9.60;99.90
52513;DHT22;38422;53.172;6.974;2023-03-14T04:09:03;9.50;99.90
52513;DHT22;38422;53.172;6.974;2023-03-14T04:11:29;9.50;99.90
52513;DHT22;38422;53.172;6.974;2023-03-14T04:13:56;9.50;99.90
52513;DHT22;38422;53.172;6.974;2023-03-14T04:16:24;9.40;99.90
52513;DHT22;38422;53.172;6.974;2023-03-14T04:18:51;9.50;99.90
52513;DHT22;38422;53.172;6.974;2023-03-14T04:21:17;9.40;99.90
52513;DHT22;38422;53.172;6.974;2023-03-14T04:23:43;9.40;99.90
52513;DHT22;38422;53.172;6.974;2023-03-14T04:26:09;9.40;99.90
52513;DHT22;38422;53.172;6.974;2023-03-14T04:28:34;9.40;99.90
52513;DHT22;38422;53.172;6.974;2023-03-14T04:31:30;9.40;99.90
52513;DHT22;38422;53.172;6.974;2023-03-14T04:33:56;9.40;99.90
52513;DHT22;38422;53.172;6.974;2023-03-14T04:36:22;9.40;99.90
52513;DHT22;38422;53.172;6.974;2023-03-14T04:38:47;9.30;99.90
52513;DHT22;38422;53.172;6.974;2023-03-14T04:41:13;9.30;99.90
52513;DHT22;38422;53.172;6.974;2023-03-14T04:43:39;9.40;99.90
52513;DHT22;38422;53.172;6.974;2023-03-14T04:46:05;9.30;99.90
52513;DHT22;38422;53.172;6.974;2023-03-14T04:48:31;9.30;99.90
52513;DHT22;38422;53.172;6.974;2023-03-14T04:50:56;9.20;99.90
52513;DHT22;38422;53.172;6.974;2023-03-14T04:53:22;9.20;99.90
52513;DHT22;38422;53.172;6.974;2023-03-14T04:55:53;9.20;99.90
52513;DHT22;38422;53.172;6.974;2023-03-14T04:58:20;9.20;99.90
52513;DHT22;38422;53.172;6.974;2023-03-14T05:00:46;9.10;99.90
52513;DHT22;38422;53.172;6.974;2023-03-14T05:03:13;9.00;99.90
52513;DHT22;38422;53.172;6.974;2023-03-14T05:05:39;9.00;99.90
52513;DHT22;38422;53.172;6.974;2023-03-14T05:08:05;9.00;99.90
52513;DHT22;38422;53.172;6.974;2023-03-14T05:10:31;9.00;99.90
52513;DHT22;38422;53.172;6.974;2023-03-14T05:12:56;9.00;99.90
52513;DHT22;38422;53.172;6.974;2023-03-14T05:15:22;9.00;99.90
52513;DHT22;38422;53.172;6.974;2023-03-14T05:17:48;9.00;99.90
52513;DHT22;38422;53.172;6.974;2023-03-14T05:20:14;9.00;99.90
52513;DHT22;38422;53.172;6.974;2023-03-14T05:22:41;9.00;99.90
52513;DHT22;38422;53.172;6.974;2023-03-14T05:25:08;9.00;99.90
52513;DHT22;38422;53.172;6.974;2023-03-14T05:27:34;9.00;99.90
52513;DHT22;38422;53.172;6.974;2023-03-14T05:29:59;9.00;99.90
52513;DHT22;38422;53.172;6.974;2023-03-14T05:32:25;9.00;99.90
52513;DHT22;38422;53.172;6.974;2023-03-14T05:34:51;9.00;99.90
52513;DHT22;38422;53.172;6.974;2023-03-14T05:37:16;9.00;99.90
52513;DHT22;38422;53.172;6.974;2023-03-14T05:39:42;9.00;99.90
52513;DHT22;38422;53.172;6.974;2023-03-14T05:42:08;9.00;99.90
52513;DHT22;38422;53.172;6.974;2023-03-14T05:44:33;9.00;99.90
52513;DHT22;38422;53.172;6.974;2023-03-14T05:46:59;9.00;99.90
52513;DHT22;38422;53.172;6.974;2023-03-14T05:49:25;9.00;99.90
52513;DHT22;38422;53.172;6.974;2023-03-14T05:51:51;8.90;99.90
52513;DHT22;38422;53.172;6.974;2023-03-14T05:54:16;9.00;99.90
52513;DHT22;38422;53.172;6.974;2023-03-14T05:56:42;8.90;99.90
52513;DHT22;38422;53.172;6.974;2023-03-14T05:59:08;8.90;99.90
52513;DHT22;38422;53.172;6.974;2023-03-14T06:01:34;8.90;99.90
52513;DHT22;38422;53.172;6.974;2023-03-14T06:04:00;8.90;99.90
52513;DHT22;38422;53.172;6.974;2023-03-14T06:06:25;8.90;99.90
52513;DHT22;38422;53.172;6.974;2023-03-14T06:08:51;8.90;99.90
52513;DHT22;38422;53.172;6.974;2023-03-14T06:11:17;8.80;99.90
52513;DHT22;38422;53.172;6.974;2023-03-14T06:13:43;8.80;99.90
52513;DHT22;38422;53.172;6.974;2023-03-14T06:16:09;8.80;99.90
52513;DHT22;38422;53.172;6.974;2023-03-14T06:18:34;8.80;99.90
52513;DHT22;38422;53.172;6.974;2023-03-14T06:21:00;8.80;99.90
52513;DHT22;38422;53.172;6.974;2023-03-14T06:23:26;8.80;99.90
52513;DHT22;38422;53.172;6.974;2023-03-14T06:25:52;8.80;99.90
52513;DHT22;38422;53.172;6.974;2023-03-14T06:28:18;8.80;99.90
52513;DHT22;38422;53.172;6.974;2023-03-14T06:30:43;8.80;99.90
52513;DHT22;38422;53.172;6.974;2023-03-14T06:33:09;8.80;99.90
52513;DHT22;38422;53.172;6.974;2023-03-14T06:35:35;8.80;99.90
52513;DHT22;38422;53.172;6.974;2023-03-14T06:38:01;8.80;99.90
52513;DHT22;38422;53.172;6.974;2023-03-14T06:40:26;8.80;99.90
52513;DHT22;38422;53.172;6.974;2023-03-14T06:42:52;8.80;99.90
52513;DHT22;38422;53.172;6.974;2023-03-14T06:45:18;8.80;99.90
52513;DHT22;38422;53.172;6.974;2023-03-14T06:47:43;8.80;99.90
52513;DHT22;38422;53.172;6.974;2023-03-14T06:50:10;8.80;99.90
52513;DHT22;38422;53.172;6.974;2023-03-14T06:52:36;8.80;99.90
52513;DHT22;38422;53.172;6.974;2023-03-14T06:55:02;8.80;99.90
52513;DHT22;38422;53.172;6.974;2023-03-14T06:57:29;8.90;99.90
52513;DHT22;38422;53.172;6.974;2023-03-14T06:59:54;8.90;99.90
52513;DHT22;38422;53.172;6.974;2023-03-14T07:02:20;8.90;99.90
52513;DHT22;38422;53.172;6.974;2023-03-14T07:04:47;8.80;99.90
52513;DHT22;38422;53.172;6.974;2023-03-14T07:07:13;8.80;99.90
52513;DHT22;38422;53.172;6.974;2023-03-14T07:09:38;8.70;99.90
52513;DHT22;38422;53.172;6.974;2023-03-14T07:12:04;8.50;99.90
52513;DHT22;38422;53.172;6.974;2023-03-14T07:14:30;8.40;99.90
52513;DHT22;38422;53.172;6.974;2023-03-14T07:16:56;8.40;99.90
52513;DHT22;38422;53.172;6.974;2023-03-14T07:19:22;8.30;99.90
52513;DHT22;38422;53.172;6.974;2023-03-14T07:21:47;8.20;99.90
52513;DHT22;38422;53.172;6.974;2023-03-14T07:24:13;8.10;99.90
52513;DHT22;38422;53.172;6.974;2023-03-14T07:26:39;8.10;99.90
52513;DHT22;38422;53.172;6.974;2023-03-14T07:29:04;8.00;99.90
52513;DHT22;38422;53.172;6.974;2023-03-14T07:31:30;7.90;99.90
52513;DHT22;38422;53.172;6.974;2023-03-14T07:33:56;7.70;99.90
52513;DHT22;38422;53.172;6.974;2023-03-14T07:36:22;7.60;99.90
52513;DHT22;38422;53.172;6.974;2023-03-14T07:38:48;7.50;99.90
52513;DHT22;38422;53.172;6.974;2023-03-14T07:41:14;7.30;99.90
52513;DHT22;38422;53.172;6.974;2023-03-14T07:43:40;7.10;99.90
52513;DHT22;38422;53.172;6.974;2023-03-14T07:46:07;7.00;99.90
52513;DHT22;38422;53.172;6.974;2023-03-14T07:48:33;6.80;99.90
52513;DHT22;38422;53.172;6.974;2023-03-14T07:50:59;6.70;99.90
52513;DHT22;38422;53.172;6.974;2023-03-14T07:53:25;6.60;99.90
52513;DHT22;38422;53.172;6.974;2023-03-14T07:55:53;6.40;99.90
52513;DHT22;38422;53.172;6.974;2023-03-14T07:58:20;6.40;99.90
52513;DHT22;38422;53.172;6.974;2023-03-14T08:00:47;6.30;99.90
52513;DHT22;38422;53.172;6.974;2023-03-14T08:03:13;6.20;99.90
52513;DHT22;38422;53.172;6.974;2023-03-14T08:05:39;6.10;99.90
52513;DHT22;38422;53.172;6.974;2023-03-14T08:08:05;6.00;99.90
52513;DHT22;38422;53.172;6.974;2023-03-14T08:10:31;6.00;99.90
52513;DHT22;38422;53.172;6.974;2023-03-14T08:12:59;5.90;99.90
52513;DHT22;38422;53.172;6.974;2023-03-14T08:15:26;5.80;99.90
52513;DHT22;38422;53.172;6.974;2023-03-14T08:17:51;5.80;99.90
52513;DHT22;38422;53.172;6.974;2023-03-14T08:20:22;5.80;99.90
52513;DHT22;38422;53.172;6.974;2023-03-14T08:22:48;5.80;99.90
52513;DHT22;38422;53.172;6.974;2023-03-14T08:25:14;5.70;99.90
52513;DHT22;38422;53.172;6.974;2023-03-14T08:27:40;5.70;99.90
52513;DHT22;38422;53.172;6.974;2023-03-14T08:30:10;5.80;99.90
52513;DHT22;38422;53.172;6.974;2023-03-14T08:32:37;5.70;99.90
52513;DHT22;38422;53.172;6.974;2023-03-14T08:35:04;5.80;99.90
52513;DHT22;38422;53.172;6.974;2023-03-14T08:37:34;5.80;99.90
52513;DHT22;38422;53.172;6.974;2023-03-14T08:40:01;5.90;99.90
52513;DHT22;38422;53.172;6.974;2023-03-14T08:42:32;5.90;99.90
52513;DHT22;38422;53.172;6.974;2023-03-14T08:44:58;6.00;99.90
52513;DHT22;38422;53.172;6.974;2023-03-14T08:47:24;6.00;99.90
52513;DHT22;38422;53.172;6.974;2023-03-14T08:49:49;6.00;99.90
52513;DHT22;38422;53.172;6.974;2023-03-14T08:52:15;6.00;99.90
52513;DHT22;38422;53.172;6.974;2023-03-14T08:54:43;6.10;99.90
52513;DHT22;38422;53.172;6.974;2023-03-14T08:57:09;6.10;99.90
52513;DHT22;38422;53.172;6.974;2023-03-14T08:59:35;6.20;99.90
52513;DHT22;38422;53.172;6.974;2023-03-14T09:02:01;6.30;99.90
52513;DHT22;38422;53.172;6.974;2023-03-14T09:04:29;6.40;99.90
52513;DHT22;38422;53.172;6.974;2023-03-14T09:06:55;6.50;99.90
52513;DHT22;38422;53.172;6.974;2023-03-14T09:09:24;6.50;99.90
52513;DHT22;38422;53.172;6.974;2023-03-14T09:11:49;6.50;99.90
52513;DHT22;38422;53.172;6.974;2023-03-14T09:14:15;6.50;99.90
52513;DHT22;38422;53.172;6.974;2023-03-14T09:16:40;6.60;99.90
52513;DHT22;38422;53.172;6.974;2023-03-14T09:19:06;6.60;99.90
52513;DHT22;38422;53.172;6.974;2023-03-14T09:21:32;6.70;99.90
52513;DHT22;38422;53.172;6.974;2023-03-14T09:23:58;6.80;99.90
52513;DHT22;38422;53.172;6.974;2023-03-14T09:26:23;6.80;99.90
52513;DHT22;38422;53.172;6.974;2023-03-14T09:28:49;6.80;99.90
52513;DHT22;38422;53.172;6.974;2023-03-14T09:31:15;6.80;99.90
52513;DHT22;38422;53.172;6.974;2023-03-14T09:33:41;6.80;99.90
52513;DHT22;38422;53.172;6.974;2023-03-14T09:36:07;6.90;99.90
52513;DHT22;38422;53.172;6.974;2023-03-14T09:38:33;6.90;99.90
52513;DHT22;38422;53.172;6.974;2023-03-14T09:41:01;7.00;99.90
52513;DHT22;38422;53.172;6.974;2023-03-14T09:43:30;7.10;99.90
52513;DHT22;38422;53.172;6.974;2023-03-14T09:45:57;7.20;99.90
52513;DHT22;38422;53.172;6.974;2023-03-14T09:48:28;7.20;99.90
52513;DHT22;38422;53.172;6.974;2023-03-14T09:50:58;7.30;99.90
52513;DHT22;38422;53.172;6.974;2023-03-14T09:53:39;7.30;99.90
52513;DHT22;38422;53.172;6.974;2023-03-14T09:56:13;7.40;99.90
52513;DHT22;38422;53.172;6.974;2023-03-14T09:58:41;7.40;99.90
52513;DHT22;38422;53.172;6.974;2023-03-14T10:01:11;7.50;99.90
52513;DHT22;38422;53.172;6.974;2023-03-14T10:03:38;7.60;99.90
52513;DHT22;38422;53.172;6.974;2023-03-14T10:06:13;7.60;99.90
52513;DHT22;38422;53.172;6.974;2023-03-14T10:08:40;7.50;99.90
52513;DHT22;38422;53.172;6.974;2023-03-14T10:11:09;7.40;99.90
52513;DHT22;38422;53.172;6.974;2023-03-14T10:13:35;7.30;99.90
52513;DHT22;38422;53.172;6.974;2023-03-14T10:16:12;7.20;99.90
52513;DHT22;38422;53.172;6.974;2023-03-14T10:18:44;7.20;99.90
52513;DHT22;38422;53.172;6.974;2023-03-14T10:21:29;7.30;99.90
52513;DHT22;38422;53.172;6.974;2023-03-14T10:23:55;7.30;99.90
52513;DHT22;38422;53.172;6.974;2023-03-14T10:26:34;7.20;99.90
52513;DHT22;38422;53.172;6.974;2023-03-14T10:29:11;7.30;99.90
52513;DHT22;38422;53.172;6.974;2023-03-14T10:34:17;7.40;99.90
52513;DHT22;38422;53.172;6.974;2023-03-14T10:36:43;7.40;99.90
52513;DHT22;38422;53.172;6.974;2023-03-14T10:39:22;7.40;99.90
52513;DHT22;38422;53.172;6.974;2023-03-14T10:41:54;7.40;99.90
52513;DHT22;38422;53.172;6.974;2023-03-14T10:44:23;7.40;99.90
52513;DHT22;38422;53.172;6.974;2023-03-14T10:47:03;7.40;99.90
52513;DHT22;38422;53.172;6.974;2023-03-14T10:49:35;7.60;99.90
52513;DHT22;38422;53.172;6.974;2023-03-14T10:52:24;7.70;99.90
52513;DHT22;38422;53.172;6.974;2023-03-14T10:54:58;7.90;99.90
52513;DHT22;38422;53.172;6.974;2023-03-14T10:57:26;7.90;99.90
52513;DHT22;38422;53.172;6.974;2023-03-14T10:59:53;8.00;99.90
52513;DHT22;38422;53.172;6.974;2023-03-14T11:05:49;8.00;99.90
52513;DHT22;38422;53.172;6.974;2023-03-14T11:08:51;8.10;99.90
52513;DHT22;38422;53.172;6.974;2023-03-14T11:11:23;8.20;99.90
52513;DHT22;38422;53.172;6.974;2023-03-14T11:19:42;8.50;99.90
52513;DHT22;38422;53.172;6.974;2023-03-14T11:30:42;8.50;99.90
52513;DHT22;38422;53.172;6.974;2023-03-14T11:33:17;8.50;99.90
52513;DHT22;38422;53.172;6.974;2023-03-14T11:36:03;8.40;99.90
52513;DHT22;38422;53.172;6.974;2023-03-14T11:38:42;8.40;99.90
52513;DHT22;38422;53.172;6.974;2023-03-14T11:41:16;8.40;99.90
52513;DHT22;38422;53.172;6.974;2023-03-14T11:43:46;8.50;99.90
52513;DHT22;38422;53.172;6.974;2023-03-14T11:46:21;8.80;99.90
52513;DHT22;38422;53.172;6.974;2023-03-14T11:51:39;9.00;99.90
52513;DHT22;38422;53.172;6.974;2023-03-14T11:57:21;8.60;99.90
52513;DHT22;38422;53.172;6.974;2023-03-14T12:10:52;8.90;99.90
52513;DHT22;38422;53.172;6.974;2023-03-14T12:13:20;9.10;99.90
52513;DHT22;38422;53.172;6.974;2023-03-14T12:15:57;9.40;99.90
52513;DHT22;38422;53.172;6.974;2023-03-14T12:18:32;10.00;99.90
52513;DHT22;38422;53.172;6.974;2023-03-14T12:21:05;10.40;99.90
52513;DHT22;38422;53.172;6.974;2023-03-14T12:23:48;10.50;99.90
52513;DHT22;38422;53.172;6.974;2023-03-14T12:26:21;10.70;98.70
52513;DHT22;38422;53.172;6.974;2023-03-14T12:36:49;10.40;98.70
52513;DHT22;38422;53.172;6.974;2023-03-14T12:39:40;10.10;99.10
52513;DHT22;38422;53.172;6.974;2023-03-14T12:44:51;9.40;99.60
52513;DHT22;38422;53.172;6.974;2023-03-14T12:49:47;8.90;99.90
52513;DHT22;38422;53.172;6.974;2023-03-14T12:57:54;8.80;99.90
52513;DHT22;38422;53.172;6.974;2023-03-14T13:00:31;9.10;99.90
52513;DHT22;38422;53.172;6.974;2023-03-14T13:03:19;9.20;99.90
52513;DHT22;38422;53.172;6.974;2023-03-14T13:05:58;9.40;99.90
52513;DHT22;38422;53.172;6.974;2023-03-14T13:08:42;9.40;99.70
52513;DHT22;38422;53.172;6.974;2023-03-14T13:11:12;9.40;99.40
52513;DHT22;38422;53.172;6.974;2023-03-14T13:13:46;9.30;99.90
52513;DHT22;38422;53.172;6.974;2023-03-14T13:16:18;9.30;99.90
52513;DHT22;38422;53.172;6.974;2023-03-14T13:18:49;9.40;99.90
52513;DHT22;38422;53.172;6.974;2023-03-14T13:21:17;9.50;98.00
52513;DHT22;38422;53.172;6.974;2023-03-14T13:24:03;9.70;98.90
52513;DHT22;38422;53.172;6.974;2023-03-14T13:26:38;10.00;97.00
52513;DHT22;38422;53.172;6.974;2023-03-14T13:31:52;10.20;94.20
52513;DHT22;38422;53.172;6.974;2023-03-14T13:34:19;10.10;91.80
52513;DHT22;38422;53.172;6.974;2023-03-14T13:36:45;10.00;96.20
52513;DHT22;38422;53.172;6.974;2023-03-14T13:39:13;10.00;96.20
52513;DHT22;38422;53.172;6.974;2023-03-14T13:41:41;10.10;96.10
52513;DHT22;38422;53.172;6.974;2023-03-14T13:44:07;10.20;95.90
52513;DHT22;38422;53.172;6.974;2023-03-14T13:46:35;10.20;92.80
52513;DHT22;38422;53.172;6.974;2023-03-14T13:49:02;10.20;94.80
52513;DHT22;38422;53.172;6.974;2023-03-14T13:51:29;10.00;92.40
52513;DHT22;38422;53.172;6.974;2023-03-14T13:53:58;9.90;94.20
52513;DHT22;38422;53.172;6.974;2023-03-14T13:56:27;9.80;94.20
52513;DHT22;38422;53.172;6.974;2023-03-14T13:58:53;9.80;93.40
52513;DHT22;38422;53.172;6.974;2023-03-14T14:01:24;9.90;92.80
52513;DHT22;38422;53.172;6.974;2023-03-14T14:03:56;10.10;93.10
52513;DHT22;38422;53.172;6.974;2023-03-14T14:06:34;10.30;91.40
52513;DHT22;38422;53.172;6.974;2023-03-14T14:11:52;10.90;91.40
52513;DHT22;38422;53.172;6.974;2023-03-14T14:14:32;11.20;91.30
52513;DHT22;38422;53.172;6.974;2023-03-14T14:17:00;11.30;90.00
52513;DHT22;38422;53.172;6.974;2023-03-14T14:19:28;11.40;91.00
52513;DHT22;38422;53.172;6.974;2023-03-14T14:21:56;11.20;89.50
52513;DHT22;38422;53.172;6.974;2023-03-14T14:24:24;10.90;90.20
52513;DHT22;38422;53.172;6.974;2023-03-14T14:26:55;10.70;90.40
52513;DHT22;38422;53.172;6.974;2023-03-14T14:29:32;10.50;90.50
52513;DHT22;38422;53.172;6.974;2023-03-14T14:35:00;10.00;90.80
52513;DHT22;38422;53.172;6.974;2023-03-14T14:37:29;10.10;90.50
52513;DHT22;38422;53.172;6.974;2023-03-14T14:40:21;10.10;91.60
52513;DHT22;38422;53.172;6.974;2023-03-14T14:42:46;10.10;92.00
52513;DHT22;38422;53.172;6.974;2023-03-14T14:45:23;10.40;92.30
52513;DHT22;38422;53.172;6.974;2023-03-14T14:48:25;10.90;92.00
52513;DHT22;38422;53.172;6.974;2023-03-14T14:53:31;11.30;90.90
52513;DHT22;38422;53.172;6.974;2023-03-14T14:56:06;11.20;86.50
52513;DHT22;38422;53.172;6.974;2023-03-14T14:58:40;10.90;86.40
52513;DHT22;38422;53.172;6.974;2023-03-14T15:01:18;10.40;89.00
52513;DHT22;38422;53.172;6.974;2023-03-14T15:03:47;10.20;88.30
52513;DHT22;38422;53.172;6.974;2023-03-14T15:06:15;9.90;90.00
52513;DHT22;38422;53.172;6.974;2023-03-14T15:08:43;9.70;90.20
52513;DHT22;38422;53.172;6.974;2023-03-14T15:11:16;9.40;90.70
52513;DHT22;38422;53.172;6.974;2023-03-14T15:13:42;9.30;91.60
52513;DHT22;38422;53.172;6.974;2023-03-14T15:16:12;9.20;92.30
52513;DHT22;38422;53.172;6.974;2023-03-14T15:18:39;9.20;93.10
52513;DHT22;38422;53.172;6.974;2023-03-14T15:21:05;9.10;93.60
52513;DHT22;38422;53.172;6.974;2023-03-14T15:23:31;9.20;94.10
52513;DHT22;38422;53.172;6.974;2023-03-14T15:25:57;9.40;94.50
52513;DHT22;38422;53.172;6.974;2023-03-14T15:28:27;9.50;94.10
52513;DHT22;38422;53.172;6.974;2023-03-14T15:30:56;9.50;92.70
52513;DHT22;38422;53.172;6.974;2023-03-14T15:33:22;9.50;92.90
52513;DHT22;38422;53.172;6.974;2023-03-14T15:35:49;9.50;93.10
52513;DHT22;38422;53.172;6.974;2023-03-14T15:38:17;9.50;93.30
52513;DHT22;38422;53.172;6.974;2023-03-14T15:40:46;9.50;92.90
52513;DHT22;38422;53.172;6.974;2023-03-14T15:43:12;9.60;93.10
52513;DHT22;38422;53.172;6.974;2023-03-14T15:45:38;9.70;93.20
52513;DHT22;38422;53.172;6.974;2023-03-14T15:48:04;9.70;92.40
52513;DHT22;38422;53.172;6.974;2023-03-14T15:50:30;9.70;92.10
52513;DHT22;38422;53.172;6.974;2023-03-14T15:52:56;9.70;91.80
52513;DHT22;38422;53.172;6.974;2023-03-14T15:55:22;9.50;91.10
52513;DHT22;38422;53.172;6.974;2023-03-14T15:57:48;9.40;91.00
52513;DHT22;38422;53.172;6.974;2023-03-14T16:00:17;9.30;90.80
52513;DHT22;38422;53.172;6.974;2023-03-14T16:02:43;9.10;90.20
52513;DHT22;38422;53.172;6.974;2023-03-14T16:05:11;8.90;90.40
52513;DHT22;38422;53.172;6.974;2023-03-14T16:07:38;8.70;90.10
52513;DHT22;38422;53.172;6.974;2023-03-14T16:10:05;8.60;90.40
52513;DHT22;38422;53.172;6.974;2023-03-14T16:12:31;8.50;90.90
52513;DHT22;38422;53.172;6.974;2023-03-14T16:14:57;8.40;91.20
52513;DHT22;38422;53.172;6.974;2023-03-14T16:17:23;8.30;91.50
52513;DHT22;38422;53.172;6.974;2023-03-14T16:19:49;8.30;91.80
52513;DHT22;38422;53.172;6.974;2023-03-14T16:22:14;8.20;92.10
52513;DHT22;38422;53.172;6.974;2023-03-14T16:24:40;8.20;92.40
52513;DHT22;38422;53.172;6.974;2023-03-14T16:27:06;8.10;92.20
52513;DHT22;38422;53.172;6.974;2023-03-14T16:29:32;8.00;92.10
52513;DHT22;38422;53.172;6.974;2023-03-14T16:31:57;8.00;91.70
52513;DHT22;38422;53.172;6.974;2023-03-14T16:34:23;7.90;91.20
52513;DHT22;38422;53.172;6.974;2023-03-14T16:36:49;7.70;92.10
52513;DHT22;38422;53.172;6.974;2023-03-14T16:39:17;7.60;93.00
52513;DHT22;38422;53.172;6.974;2023-03-14T16:41:43;7.50;93.60
52513;DHT22;38422;53.172;6.974;2023-03-14T16:44:09;7.40;94.20
52513;DHT22;38422;53.172;6.974;2023-03-14T16:46:34;7.30;94.50
52513;DHT22;38422;53.172;6.974;2023-03-14T16:49:01;7.10;95.50
52513;DHT22;38422;53.172;6.974;2023-03-14T16:51:27;7.00;96.10
52513;DHT22;38422;53.172;6.974;2023-03-14T16:53:53;6.90;96.70
52513;DHT22;38422;53.172;6.974;2023-03-14T16:56:19;6.90;97.40
52513;DHT22;38422;53.172;6.974;2023-03-14T16:58:46;6.90;98.10
52513;DHT22;38422;53.172;6.974;2023-03-14T17:01:14;6.90;98.70